sensor_id;sensor_type;location;lat;lon;timestamp;P1;durP1;ratioP1;P2;durP2;ratioP2
32946;SDS011;54465;51.230;22.504;2024-01-30T15:57:44;15.07;;;8.30;;
32946;SDS011;54465;51.230;22.504;2024-01-30T16:03:10;14.77;;;8.60;;
32946;SDS011;54465;51.230;22.504;2024-01-30T16:08:36;16.20;;;8.80;;
32946;SDS011;54465;51.230;22.504;2024-01-30T16:14:02;14.38;;;7.82;;
32946;SDS011;54465;51.230;22.504;2024-01-30T16:19:28;11.85;;;7.47;;
32946;SDS011;54465;51.230;22.504;2024-01-30T16:24:54;15.23;;;7.93;;
32946;SDS011;54465;51.230;22.504;2024-01-30T16:30:20;14.10;;;7.93;;
32946;SDS011;54465;51.230;22.504;2024-01-30T16:35:46;14.10;;;8.85;;
32946;SDS011;54465;51.230;22.504;2024-01-30T16:41:12;13.07;;;7.75;;
32946;SDS011;54465;51.230;22.504;2024-01-30T16:46:38;16.35;;;8.40;;
32946;SDS011;54465;51.230;22.504;2024-01-30T16:52:05;13.05;;;7.68;;
32946;SDS011;54465;51.230;22.504;2024-01-30T16:57:31;15.20;;;8.07;;
32946;SDS011;54465;51.230;22.504;2024-01-30T17:02:57;16.98;;;8.88;;
32946;SDS011;54465;51.230;22.504;2024-01-30T17:08:23;16.20;;;7.70;;
32946;SDS011;54465;51.230;22.504;2024-01-30T17:13:49;14.70;;;7.68;;
32946;SDS011;54465;51.230;22.504;2024-01-30T17:19:15;13.90;;;7.18;;
32946;SDS011;54465;51.230;22.504;2024-01-30T17:24:40;13.43;;;7.15;;
32946;SDS011;54465;51.230;22.504;2024-01-30T17:30:06;15.57;;;7.80;;
32946;SDS011;54465;51.230;22.504;2024-01-30T17:35:32;18.57;;;8.63;;
32946;SDS011;54465;51.230;22.504;2024-01-30T17:40:58;15.85;;;7.75;;
32946;SDS011;54465;51.230;22.504;2024-01-30T17:46:24;16.05;;;7.78;;
32946;SDS011;54465;51.230;22.504;2024-01-30T17:51:49;16.08;;;7.95;;
32946;SDS011;54465;51.230;22.504;2024-01-30T17:57:16;18.85;;;8.55;;
32946;SDS011;54465;51.230;22.504;2024-01-30T18:02:22;11.60;;;6.47;;
32946;SDS011;54465;51.230;22.504;2024-01-30T18:07:23;14.57;;;7.40;;
32946;SDS011;54465;51.230;22.504;2024-01-30T18:12:23;16.98;;;7.78;;
32946;SDS011;54465;51.230;22.504;2024-01-30T18:17:24;14.80;;;8.18;;
32946;SDS011;54465;51.230;22.504;2024-01-30T18:22:24;15.88;;;8.02;;
32946;SDS011;54465;51.230;22.504;2024-01-30T18:27:25;14.13;;;8.07;;
32946;SDS011;54465;51.230;22.504;2024-01-30T18:32:25;14.25;;;8.15;;
32946;SDS011;54465;51.230;22.504;2024-01-30T18:37:26;15.70;;;8.13;;
32946;SDS011;54465;51.230;22.504;2024-01-30T18:42:26;15.75;;;8.80;;
32946;SDS011;54465;51.230;22.504;2024-01-30T18:47:27;19.20;;;9.93;;
32946;SDS011;54465;51.230;22.504;2024-01-30T18:52:28;21.33;;;10.05;;
32946;SDS011;54465;51.230;22.504;2024-01-30T18:57:28;25.02;;;11.75;;
32946;SDS011;54465;51.230;22.504;2024-01-30T19:02:29;19.48;;;9.90;;
32946;SDS011;54465;51.230;22.504;2024-01-30T19:07:29;19.23;;;9.68;;
32946;SDS011;54465;51.230;22.504;2024-01-30T19:12:30;16.27;;;9.82;;
32946;SDS011;54465;51.230;22.504;2024-01-30T19:17:31;13.73;;;8.20;;
32946;SDS011;54465;51.230;22.504;2024-01-30T19:22:32;17.48;;;8.77;;
32946;SDS011;54465;51.230;22.504;2024-01-30T19:27:33;15.27;;;8.43;;
32946;SDS011;54465;51.230;22.504;2024-01-30T19:32:37;16.38;;;7.90;;
32946;SDS011;54465;51.230;22.504;2024-01-30T19:37:37;15.48;;;8.10;;
32946;SDS011;54465;51.230;22.504;2024-01-30T19:42:38;13.52;;;7.55;;
32946;SDS011;54465;51.230;22.504;2024-01-30T19:47:38;13.40;;;8.02;;
32946;SDS011;54465;51.230;22.504;2024-01-30T19:52:40;15.65;;;9.55;;
32946;SDS011;54465;51.230;22.504;2024-01-30T19:57:43;13.73;;;8.32;;
32946;SDS011;54465;51.230;22.504;2024-01-30T20:02:44;18.27;;;10.02;;
32946;SDS011;54465;51.230;22.504;2024-01-30T20:07:44;14.88;;;8.68;;
32946;SDS011;54465;51.230;22.504;2024-01-30T20:12:45;14.23;;;7.90;;
32946;SDS011;54465;51.230;22.504;2024-01-30T20:17:45;17.42;;;8.60;;
32946;SDS011;54465;51.230;22.504;2024-01-30T20:22:46;14.52;;;8.27;;
32946;SDS011;54465;51.230;22.504;2024-01-30T20:27:47;16.98;;;8.40;;
32946;SDS011;54465;51.230;22.504;2024-01-30T20:32:48;16.88;;;8.60;;
32946;SDS011;54465;51.230;22.504;2024-01-30T20:37:49;17.52;;;9.00;;
32946;SDS011;54465;51.230;22.504;2024-01-30T20:42:51;16.77;;;9.35;;
32946;SDS011;54465;51.230;22.504;2024-01-30T20:47:51;17.55;;;9.13;;
32946;SDS011;54465;51.230;22.504;2024-01-30T20:52:52;17.08;;;9.45;;
32946;SDS011;54465;51.230;22.504;2024-01-30T20:57:52;16.58;;;9.38;;
32946;SDS011;54465;51.230;22.504;2024-01-30T21:02:54;17.73;;;10.40;;
32946;SDS011;54465;51.230;22.504;2024-01-30T21:07:55;15.27;;;8.93;;
32946;SDS011;54465;51.230;22.504;2024-01-30T21:12:55;17.42;;;10.05;;
32946;SDS011;54465;51.230;22.504;2024-01-30T21:17:56;16.75;;;9.73;;
32946;SDS011;54465;51.230;22.504;2024-01-30T21:22:57;17.13;;;9.88;;
32946;SDS011;54465;51.230;22.504;2024-01-30T21:27:57;18.45;;;9.90;;
32946;SDS011;54465;51.230;22.504;2024-01-30T21:32:58;21.02;;;9.57;;
32946;SDS011;54465;51.230;22.504;2024-01-30T21:38:01;17.73;;;9.93;;
32946;SDS011;54465;51.230;22.504;2024-01-30T21:43:03;16.83;;;9.60;;
32946;SDS011;54465;51.230;22.504;2024-01-30T21:48:07;19.63;;;10.32;;
32946;SDS011;54465;51.230;22.504;2024-01-30T21:53:07;18.60;;;9.88;;
32946;SDS011;54465;51.230;22.504;2024-01-30T21:58:08;20.98;;;11.30;;
32946;SDS011;54465;51.230;22.504;2024-01-30T22:03:10;18.73;;;11.20;;
32946;SDS011;54465;51.230;22.504;2024-01-30T22:08:11;18.58;;;10.98;;
32946;SDS011;54465;51.230;22.504;2024-01-30T22:13:12;18.45;;;10.02;;
32946;SDS011;54465;51.230;22.504;2024-01-30T22:18:13;17.48;;;9.95;;
32946;SDS011;54465;51.230;22.504;2024-01-30T22:23:15;16.27;;;9.98;;
32946;SDS011;54465;51.230;22.504;2024-01-30T22:28:16;16.85;;;10.35;;
32946;SDS011;54465;51.230;22.504;2024-01-30T22:33:16;18.00;;;10.50;;
32946;SDS011;54465;51.230;22.504;2024-01-30T22:38:17;17.67;;;10.15;;
32946;SDS011;54465;51.230;22.504;2024-01-30T22:43:18;19.88;;;11.52;;
32946;SDS011;54465;51.230;22.504;2024-01-30T22:48:19;16.55;;;10.23;;
32946;SDS011;54465;51.230;22.504;2024-01-30T22:53:19;18.98;;;11.38;;
32946;SDS011;54465;51.230;22.504;2024-01-30T22:58:20;22.80;;;11.32;;
32946;SDS011;54465;51.230;22.504;2024-01-30T23:03:21;21.38;;;11.43;;
32946;SDS011;54465;51.230;22.504;2024-01-30T23:08:21;19.63;;;10.32;;
32946;SDS011;54465;51.230;22.504;2024-01-30T23:13:22;19.40;;;10.48;;
32946;SDS011;54465;51.230;22.504;2024-01-30T23:18:22;18.00;;;11.32;;
32946;SDS011;54465;51.230;22.504;2024-01-30T23:23:23;24.05;;;11.55;;
32946;SDS011;54465;51.230;22.504;2024-01-30T23:28:23;15.02;;;9.73;;
32946;SDS011;54465;51.230;22.504;2024-01-30T23:33:24;22.00;;;11.57;;
32946;SDS011;54465;51.230;22.504;2024-01-30T23:38:24;17.63;;;11.18;;
32946;SDS011;54465;51.230;22.504;2024-01-30T23:43:25;19.67;;;11.25;;
32946;SDS011;54465;51.230;22.504;2024-01-30T23:48:25;21.83;;;12.05;;
32946;SDS011;54465;51.230;22.504;2024-01-30T23:53:26;21.45;;;11.57;;
32946;SDS011;54465;51.230;22.504;2024-01-30T23:58:28;20.83;;;11.43;;
